createdAt,value
2023-04-11T00:01:14.156Z,6.07
2023-04-11T00:06:34.694Z,5.53
2023-04-11T00:11:56.871Z,5.97
2023-04-11T00:17:17.730Z,6.53
2023-04-11T00:22:38.920Z,6.60
2023-04-11T00:27:59.718Z,5.75
2023-04-11T00:33:20.748Z,5.50
2023-04-11T00:38:42.215Z,5.35
2023-04-11T00:44:03.027Z,5.15
2023-04-11T00:49:23.801Z,4.63
2023-04-11T00:54:44.328Z,3.55
2023-04-11T01:00:07.016Z,3.72
2023-04-11T01:05:29.303Z,3.97
2023-04-11T01:10:50.238Z,4.80
2023-04-11T01:16:15.079Z,4.38
2023-04-11T01:21:37.741Z,4.25
2023-04-11T01:26:58.165Z,1.92
2023-04-11T01:33:40.780Z,4.78
2023-04-11T01:39:01.926Z,4.43
2023-04-11T01:44:25.212Z,5.05
2023-04-11T01:49:45.675Z,4.80
2023-04-11T01:55:06.605Z,3.63
2023-04-11T02:00:27.317Z,3.25
2023-04-11T02:05:48.071Z,3.83
2023-04-11T02:11:09.191Z,3.30
2023-04-11T02:16:29.966Z,3.35
2023-04-11T02:21:50.932Z,4.65
2023-04-11T02:27:13.281Z,4.65
2023-04-11T02:32:35.296Z,5.32
2023-04-11T02:37:55.599Z,5.20
2023-04-11T02:43:16.956Z,4.38
2023-04-11T02:48:37.569Z,4.03
2023-04-11T02:53:59.039Z,4.35
2023-04-11T02:59:21.421Z,5.53
2023-04-11T03:04:42.338Z,4.32
2023-04-11T03:10:08.131Z,5.18
2023-04-11T03:15:31.865Z,4.35
2023-04-11T03:20:56.872Z,3.55
2023-04-11T03:26:18.551Z,5.80
2023-04-11T03:31:39.457Z,4.75
2023-04-11T03:37:00.860Z,4.00
2023-04-11T03:42:22.256Z,4.03
2023-04-11T03:47:48.441Z,5.07
2023-04-11T03:53:13.162Z,4.03
2023-04-11T04:04:00.476Z,4.53
2023-04-11T04:09:24.019Z,2.53
2023-04-11T04:14:49.252Z,3.88
2023-04-11T04:20:12.299Z,2.95
2023-04-11T04:25:35.005Z,3.00
2023-04-11T04:30:58.163Z,2.95
2023-04-11T04:36:24.994Z,3.75
2023-04-11T04:41:48.707Z,2.60
2023-04-11T04:47:11.116Z,3.15
2023-04-11T04:52:31.693Z,4.13
2023-04-11T04:57:52.427Z,2.30
2023-04-11T05:03:17.007Z,4.30
2023-04-11T05:08:37.903Z,1.83
2023-04-11T05:14:01.204Z,1.92
2023-04-11T05:19:22.027Z,1.50
2023-04-11T05:24:45.043Z,2.10
2023-04-11T05:30:07.512Z,1.60
2023-04-11T05:35:31.590Z,1.35
2023-04-11T05:40:52.826Z,0.90
2023-04-11T05:46:13.554Z,1.05
2023-04-11T05:51:34.169Z,1.33
2023-04-11T05:56:56.461Z,2.05
2023-04-11T06:02:17.370Z,1.65
2023-04-11T06:07:39.478Z,2.40
2023-04-11T06:13:50.884Z,1.73
2023-04-11T06:19:11.748Z,1.92
2023-04-11T06:24:39.387Z,2.88
2023-04-11T06:30:00.169Z,2.50
2023-04-11T06:35:24.871Z,2.50
2023-04-11T06:40:45.539Z,2.58
2023-04-11T06:46:08.050Z,2.28
2023-04-11T06:51:29.392Z,2.78
2023-04-11T06:56:53.171Z,2.50
2023-04-11T07:02:14.529Z,3.77
2023-04-11T07:07:34.873Z,2.60
2023-04-11T07:12:55.821Z,3.15
2023-04-11T07:18:16.935Z,3.20
2023-04-11T07:23:37.604Z,2.70
2023-04-11T07:28:58.996Z,2.10
2023-04-11T07:34:19.887Z,2.70
2023-04-11T07:39:40.757Z,2.65
2023-04-11T07:45:01.490Z,2.53
2023-04-11T07:50:22.121Z,2.53
2023-04-11T07:55:43.337Z,3.30
2023-04-11T08:01:05.451Z,3.50
2023-04-11T08:06:26.528Z,4.28
2023-04-11T08:11:47.039Z,4.05
2023-04-11T08:17:17.659Z,3.53
2023-04-11T08:22:46.804Z,2.65
2023-04-11T08:28:09.881Z,5.50
2023-04-11T08:33:30.745Z,4.28
2023-04-11T08:38:54.001Z,4.78
2023-04-11T08:44:14.958Z,3.63
2023-04-11T08:49:36.164Z,3.97
2023-04-11T08:54:56.953Z,5.20
2023-04-11T09:00:23.378Z,4.22
2023-04-11T09:05:46.585Z,5.32
2023-04-11T09:11:07.398Z,3.40
2023-04-11T09:16:28.465Z,4.72
2023-04-11T09:21:52.466Z,4.85
2023-04-11T09:27:14.261Z,3.85
2023-04-11T09:32:35.250Z,4.90
2023-04-11T09:37:57.968Z,3.08
2023-04-11T09:43:20.344Z,3.83
2023-04-11T09:48:46.676Z,3.25
2023-04-11T09:54:08.378Z,5.05
2023-04-11T09:59:29.928Z,3.10
2023-04-11T10:04:51.504Z,4.40
2023-04-11T10:10:19.818Z,4.03
2023-04-11T10:16:13.597Z,4.47
2023-04-11T10:21:38.234Z,3.30
2023-04-11T10:32:21.907Z,4.10
2023-04-11T10:37:42.298Z,3.70
2023-04-11T10:43:19.756Z,4.85
2023-04-11T10:48:59.672Z,4.28
2023-04-11T10:54:26.745Z,4.47
2023-04-11T10:59:50.203Z,3.92
2023-04-11T11:05:17.993Z,3.72
2023-04-11T11:10:39.382Z,3.85
2023-04-11T11:15:59.715Z,2.92
2023-04-11T11:21:28.552Z,3.67
2023-04-11T11:26:50.342Z,4.22
2023-04-11T11:32:32.783Z,3.67
2023-04-11T11:37:54.236Z,3.65
2023-04-11T11:43:16.391Z,3.70
2023-04-11T11:48:37.057Z,3.33
2023-04-11T11:54:10.991Z,3.45
2023-04-11T11:59:31.776Z,2.90
2023-04-11T12:04:57.981Z,3.47
2023-04-11T12:10:18.681Z,4.32
2023-04-11T12:15:40.542Z,2.72
2023-04-11T12:21:01.580Z,3.15
2023-04-11T12:26:22.600Z,3.03
2023-04-11T12:31:45.742Z,3.00
2023-04-11T12:37:06.479Z,3.40
2023-04-11T12:42:27.632Z,3.40
2023-04-11T12:47:47.928Z,3.97
2023-04-11T12:53:08.370Z,3.30
2023-04-11T12:58:28.988Z,3.70
2023-04-11T13:03:49.646Z,4.35
2023-04-11T13:09:13.852Z,2.83
2023-04-11T13:14:36.402Z,2.90
2023-04-11T13:19:57.030Z,3.17
2023-04-11T13:25:18.145Z,3.30
2023-04-11T13:30:39.255Z,3.30
2023-04-11T13:35:59.954Z,2.90
2023-04-11T13:41:21.092Z,3.78
2023-04-11T13:46:41.879Z,3.17
2023-04-11T13:52:02.655Z,4.40
2023-04-11T13:57:23.258Z,3.10
2023-04-11T14:02:44.491Z,3.25
2023-04-11T14:08:06.127Z,3.28
2023-04-11T14:13:27.193Z,2.60
2023-04-11T14:18:48.095Z,2.80
2023-04-11T14:24:09.150Z,2.97
2023-04-11T14:29:34.560Z,3.72
2023-04-11T14:34:55.117Z,4.60
2023-04-11T14:40:16.528Z,3.08
2023-04-11T14:45:37.503Z,3.15
2023-04-11T14:50:57.962Z,3.03
2023-04-11T14:56:19.812Z,2.45
2023-04-11T15:01:40.525Z,1.40
2023-04-11T15:07:01.546Z,1.52
2023-04-11T15:12:22.002Z,1.92
2023-04-11T15:17:45.098Z,2.20
2023-04-11T15:23:05.873Z,2.13
2023-04-11T15:28:31.342Z,2.35
2023-04-11T15:33:52.280Z,2.78
2023-04-11T15:39:12.884Z,3.05
2023-04-11T15:44:33.538Z,2.88
2023-04-11T15:49:53.885Z,3.22
2023-04-11T15:55:15.699Z,2.38
2023-04-11T16:00:37.165Z,2.78
2023-04-11T16:06:01.331Z,3.67
2023-04-11T16:11:21.758Z,3.93
2023-04-11T16:16:45.823Z,3.17
2023-04-11T16:22:06.582Z,3.90
2023-04-11T16:27:27.383Z,3.22
2023-04-11T16:32:48.080Z,1.85
2023-04-11T16:38:08.278Z,1.42
2023-04-11T16:43:28.807Z,3.00
2023-04-11T16:48:49.261Z,2.75
2023-04-11T16:54:10.862Z,3.78
2023-04-11T16:59:31.706Z,2.83
2023-04-11T17:04:52.263Z,2.85
2023-04-11T17:10:12.885Z,3.72
2023-04-11T17:15:34.742Z,3.78
2023-04-11T17:20:55.606Z,3.15
2023-04-11T17:26:17.004Z,3.63
2023-04-11T17:31:38.505Z,3.15
2023-04-11T17:36:58.788Z,2.55
2023-04-11T17:42:19.457Z,2.60
2023-04-11T17:47:41.813Z,3.60
2023-04-11T17:53:02.365Z,2.35
2023-04-11T17:58:22.850Z,1.45
2023-04-11T18:03:44.062Z,2.47
2023-04-11T18:09:05.769Z,2.10
2023-04-11T18:14:27.273Z,2.60
2023-04-11T18:19:47.672Z,2.05
2023-04-11T18:25:09.079Z,2.10
2023-04-11T18:30:29.977Z,1.80
2023-04-11T18:35:50.528Z,2.38
2023-04-11T18:41:11.016Z,2.33
2023-04-11T18:46:32.136Z,2.88
2023-04-11T18:51:53.870Z,2.70
2023-04-11T18:57:14.879Z,2.45
2023-04-11T19:02:35.730Z,2.00
2023-04-11T19:07:56.548Z,2.58
2023-04-11T19:13:17.731Z,1.85
2023-04-11T19:18:38.506Z,2.50
2023-04-11T19:23:59.750Z,2.40
2023-04-11T19:29:20.793Z,3.22
2023-04-11T19:34:41.480Z,2.30
2023-04-11T19:40:06.975Z,2.78
2023-04-11T19:45:29.944Z,3.08
2023-04-11T19:50:51.930Z,2.83
2023-04-11T19:56:14.420Z,4.28
2023-04-11T20:01:35.863Z,2.08
2023-04-11T20:06:58.491Z,3.08
2023-04-11T20:12:19.153Z,2.30
2023-04-11T20:17:40.400Z,2.58
2023-04-11T20:23:04.804Z,3.28
2023-04-11T20:28:25.452Z,3.10
2023-04-11T20:33:46.521Z,4.18
2023-04-11T20:39:07.056Z,2.97
2023-04-11T20:44:27.879Z,3.47
2023-04-11T20:49:49.677Z,3.17
2023-04-11T20:55:10.849Z,2.53
2023-04-11T21:00:31.808Z,2.90
2023-04-11T21:05:52.076Z,3.42
2023-04-11T21:11:12.904Z,3.35
2023-04-11T21:16:33.528Z,3.05
2023-04-11T21:21:54.291Z,2.67
2023-04-11T21:27:14.649Z,3.58
2023-04-11T21:32:35.689Z,3.33
2023-04-11T21:37:56.027Z,3.55
2023-04-11T21:43:16.335Z,4.00
2023-04-11T21:48:37.011Z,3.50
2023-04-11T21:53:57.599Z,2.92
2023-04-11T21:59:17.865Z,2.83
2023-04-11T22:04:51.281Z,3.10
2023-04-11T22:10:23.612Z,3.45
2023-04-11T22:15:45.966Z,3.10
2023-04-11T22:21:09.225Z,3.15
2023-04-11T22:26:33.830Z,3.20
2023-04-11T22:31:54.375Z,4.60
2023-04-11T22:37:15.164Z,4.38
2023-04-11T22:42:35.900Z,3.17
2023-04-11T22:47:59.973Z,3.65
2023-04-11T22:53:20.790Z,3.00
2023-04-11T22:58:41.829Z,3.53
2023-04-11T23:04:02.292Z,2.67
2023-04-11T23:09:23.330Z,2.63
2023-04-11T23:14:46.469Z,2.70
2023-04-11T23:20:14.201Z,2.85
2023-04-11T23:25:39.012Z,3.25
2023-04-11T23:31:00.461Z,2.85
2023-04-11T23:36:21.613Z,2.20
2023-04-11T23:41:42.424Z,3.00
2023-04-11T23:47:02.816Z,3.20
2023-04-11T23:52:23.562Z,2.30
2023-04-11T23:57:44.220Z,3.03
